Time;durP1;ratioP1;P1;durP2;ratioP2;P2;SDS_P1;SDS_P2;PMS_P1;PMS_P2;Temp;Humidity;BMP_temperature;BMP_pressure;BME280_temperature;BME280_humidity;BME280_pressure;Samples;Min_cycle;Max_cycle;Signal;HPM_P1;HPM_P2
2023/09/29 00:00:37;;;;;;;2.20;1.53;;;;;14.90;96352.00;;;;4995411;28;20202;-55
2023/09/29 00:03:07;;;;;;;2.73;1.33;;;;;14.90;96345.00;;;;4995804;28;20218;-55
2023/09/29 00:05:35;;;;;;;2.53;1.17;;;;;14.90;96345.00;;;;4995358;28;20218;-55
2023/09/29 00:08:03;;;;;;;5.83;1.50;;;;;14.80;96346.00;;;;4995327;28;20194;-55
2023/09/29 00:10:31;;;;;;;1.37;1.33;;;;;14.70;96329.00;;;;4995186;28;20681;-55
2023/09/29 00:12:59;;;;;;;1.67;1.57;;;;;14.70;96343.00;;;;4995109;28;20220;-56
2023/09/29 00:15:26;;;;;;;1.10;1.10;;;;;14.50;96343.00;;;;4995399;28;20190;-58
2023/09/29 00:17:54;;;;;;;0.73;0.73;;;;;14.40;96344.00;;;;4995815;28;20198;-56
2023/09/29 00:20:23;;;;;;;0.87;0.87;;;;;14.50;96344.00;;;;4977587;28;20286;-56
2023/09/29 00:22:52;;;;;;;1.13;1.13;;;;;14.50;96347.00;;;;4994346;28;20317;-56
2023/09/29 00:25:19;;;;;;;0.80;0.80;;;;;14.40;96339.00;;;;4994840;28;20218;-56
2023/09/29 00:27:48;;;;;;;1.33;1.23;;;;;14.40;96345.00;;;;4995008;28;20194;-56
2023/09/29 00:30:16;;;;;;;0.93;0.93;;;;;14.50;96343.00;;;;4994949;28;20198;-56
2023/09/29 00:32:47;;;;;;;4.60;1.13;;;;;14.60;96342.00;;;;4994878;28;20221;-56
2023/09/29 00:35:24;;;;;;;1.00;1.00;;;;;14.60;96342.00;;;;4995062;28;20190;-56
2023/09/29 00:37:51;;;;;;;1.30;1.30;;;;;14.50;96343.00;;;;4994880;28;20584;-55
2023/09/29 00:40:19;;;;;;;1.63;1.53;;;;;14.40;96339.00;;;;4995272;28;20249;-57
2023/09/29 00:42:48;;;;;;;1.53;1.30;;;;;14.40;96345.00;;;;4994705;28;20233;-55
2023/09/29 00:45:20;;;;;;;0.80;0.80;;;;;14.40;96338.00;;;;4994775;28;20232;-55
2023/09/29 00:47:49;;;;;;;1.60;1.50;;;;;14.30;96339.00;;;;4994890;28;20241;-55
2023/09/29 00:50:19;;;;;;;1.63;1.33;;;;;14.30;96338.00;;;;4994823;28;20199;-55
2023/09/29 00:52:48;;;;;;;0.70;0.70;;;;;14.40;96327.00;;;;4994483;28;20214;-55
2023/09/29 00:55:17;;;;;;;0.80;0.80;;;;;14.40;96337.00;;;;4994475;28;20201;-56
2023/09/29 00:57:47;;;;;;;0.83;0.83;;;;;14.30;96328.00;;;;4994379;28;20724;-55
2023/09/29 01:00:21;;;;;;;1.47;1.37;;;;;14.40;96322.00;;;;4994762;28;20493;-56
2023/09/29 01:02:49;;;;;;;1.53;1.50;;;;;14.30;96321.00;;;;4994505;28;20574;-55
2023/09/29 01:05:17;;;;;;;2.57;1.23;;;;;14.30;96331.00;;;;4994217;28;20682;-56
2023/09/29 01:07:46;;;;;;;5.03;1.30;;;;;14.20;96326.00;;;;4994305;28;20198;-57
2023/09/29 01:10:14;;;;;;;0.90;0.90;;;;;14.30;96326.00;;;;4994255;28;20194;-55
2023/09/29 01:12:43;;;;;;;1.03;1.03;;;;;14.30;96332.00;;;;4994002;28;20214;-55
2023/09/29 01:15:13;;;;;;;5.33;1.93;;;;;14.20;96326.00;;;;4994441;28;20293;-56
2023/09/29 01:17:42;;;;;;;1.47;1.37;;;;;14.00;96330.00;;;;4994352;28;20187;-55
2023/09/29 01:20:16;;;;;;;1.23;1.20;;;14.80;79.40;14.00;96328.00;;;;4994061;28;20190;-55
2023/09/29 01:22:47;;;;;;;1.40;1.40;;;14.70;80.60;14.00;96324.00;;;;4994100;28;20255;-55
2023/09/29 01:25:16;;;;;;;2.00;1.90;;;14.70;81.30;13.90;96328.00;;;;4993952;28;20296;-57
2023/09/29 01:27:43;;;;;;;1.13;1.13;;;14.60;81.20;13.90;96330.00;;;;4993970;28;20673;-55
2023/09/29 01:30:13;;;;;;;1.30;1.20;;;14.60;82.20;14.00;96325.00;;;;4993836;28;20220;-56
2023/09/29 01:32:41;;;;;;;1.03;1.03;;;;;13.90;96326.00;;;;4993697;28;20716;-55
2023/09/29 01:35:10;;;;;;;1.20;1.20;;;;;13.50;96326.00;;;;4993715;28;20602;-55
2023/09/29 01:37:38;;;;;;;2.83;1.40;;;;;13.60;96317.00;;;;4993814;28;20198;-55
2023/09/29 01:40:08;;;;;;;0.80;0.80;;;;;13.60;96319.00;;;;4993793;28;20292;-58
2023/09/29 01:42:36;;;;;;;1.40;1.23;;;;;13.80;96320.00;;;;4994041;28;20272;-56
2023/09/29 01:45:05;;;;;;;1.57;1.47;;;;;13.80;96322.00;;;;4993751;28;20198;-56
2023/09/29 01:47:34;;;;;;;1.47;1.47;;;;;13.70;96321.00;;;;4993946;28;20201;-55
2023/09/29 01:50:01;;;;;;;1.30;1.20;;;;;13.80;96309.00;;;;4993817;28;20273;-55
2023/09/29 01:52:28;;;;;;;1.53;1.43;;;;;13.70;96313.00;;;;4993808;28;20224;-55
2023/09/29 01:54:56;;;;;;;1.33;1.23;;;;;13.70;96304.00;;;;4976100;28;20611;-55
2023/09/29 01:57:24;;;;;;;2.53;1.10;;;;;13.70;96308.00;;;;4993813;28;20202;-56
2023/09/29 01:59:54;;;;;;;1.70;1.60;;;;;13.80;96307.00;;;;4993649;28;20202;-55
2023/09/29 02:02:21;;;;;;;3.93;1.90;;;;;13.70;96305.00;;;;4994282;28;20206;-55
2023/09/29 02:04:49;;;;;;;1.43;1.37;;;;;13.70;96309.00;;;;4993546;28;20677;-55
2023/09/29 02:07:16;;;;;;;1.57;1.43;;;;;13.80;96309.00;;;;4993291;28;20326;-55
2023/09/29 02:09:44;;;;;;;1.33;1.33;;;;;13.70;96305.00;;;;4993506;28;20190;-55
2023/09/29 02:12:12;;;;;;;1.13;1.13;;;;;13.70;96309.00;;;;4993406;28;20575;-56
2023/09/29 02:14:40;;;;;;;0.70;0.70;;;;;13.70;96295.00;;;;4993477;28;20627;-56
2023/09/29 02:17:09;;;;;;;1.17;1.17;;;;;13.80;96304.00;;;;4993346;28;20194;-55
2023/09/29 02:19:37;;;;;;;1.60;1.17;;;;;13.60;96304.00;;;;4993384;28;20202;-56
2023/09/29 02:22:04;;;;;;;1.00;1.00;;;14.20;68.30;13.50;96304.00;;;;4993245;28;20217;-55
2023/09/29 02:24:33;;;;;;;0.67;0.67;;;14.20;69.70;13.50;96306.00;;;;4993194;28;20679;-55
2023/09/29 02:27:00;;;;;;;1.90;1.80;;;;;13.40;96303.00;;;;4993308;28;20249;-56
2023/09/29 02:29:28;;;;;;;1.63;1.53;;;;;13.40;96299.00;;;;4993290;28;20194;-55
2023/09/29 02:31:56;;;;;;;2.53;1.47;;;14.00;78.20;13.30;96288.00;;;;4993272;28;20217;-57
2023/09/29 02:34:26;;;;;;;1.03;1.03;;;14.00;78.70;13.20;96299.00;;;;4993369;28;20190;-55
2023/09/29 02:36:53;;;;;;;0.97;0.93;;;13.90;79.20;13.30;96290.00;;;;4993525;28;20206;-55
2023/09/29 02:39:20;;;;;;;1.00;1.00;;;14.00;80.00;13.30;96286.00;;;;4993533;28;20245;-55
2023/09/29 02:41:48;;;;;;;1.07;1.07;;;14.00;81.30;13.20;96295.00;;;;4993278;28;20573;-55
2023/09/29 02:44:15;;;;;;;1.03;1.03;;;13.90;86.80;13.30;96290.00;;;;4993305;28;20268;-56
2023/09/29 02:46:42;;;;;;;0.87;0.87;;;14.10;90.90;13.20;96299.00;;;;4995232;28;20587;-56
2023/09/29 02:49:09;;;;;;;0.90;0.90;;;14.00;85.80;13.30;96301.00;;;;4997198;28;20197;-56
2023/09/29 02:51:40;;;;;;;1.23;1.13;;;13.80;99.90;13.30;96292.00;;;;4997293;28;20217;-55
2023/09/29 02:54:10;;;;;;;1.57;1.40;;;13.90;95.50;13.30;96287.00;;;;4997288;28;20179;-55
2023/09/29 02:56:37;;;;;;;1.00;1.00;;;14.00;83.80;13.30;96284.00;;;;4997036;28;20213;-55
2023/09/29 02:59:06;;;;;;;0.90;0.90;;;13.90;83.40;13.30;96277.00;;;;4996565;28;20191;-57
2023/09/29 03:01:34;;;;;;;1.30;1.30;;;14.00;83.50;13.30;96287.00;;;;4996443;28;20236;-56
2023/09/29 03:04:01;;;;;;;1.67;1.00;;;14.00;83.50;13.10;96280.00;;;;4997182;28;20186;-55
2023/09/29 03:06:28;;;;;;;2.43;1.10;;;13.90;83.50;13.10;96283.00;;;;4996347;28;20218;-56
2023/09/29 03:08:58;;;;;;;1.23;1.20;;;;;13.00;96282.00;;;;4997019;28;20198;-56
2023/09/29 03:11:26;;;;;;;1.43;1.33;;;;;13.10;96281.00;;;;4996385;28;20697;-56
2023/09/29 03:13:55;;;;;;;1.33;1.23;;;;;13.20;96288.00;;;;4996758;28;20197;-55
2023/09/29 03:16:24;;;;;;;0.90;0.90;;;13.80;86.00;13.20;96288.00;;;;4996539;28;20226;-57
2023/09/29 03:18:51;;;;;;;1.67;1.30;;;13.90;86.20;13.20;96291.00;;;;4996587;28;20187;-55
2023/09/29 03:21:18;;;;;;;1.57;1.47;;;;;13.20;96287.00;;;;4996244;28;20218;-55
2023/09/29 03:23:46;;;;;;;1.57;1.57;;;;;13.20;96301.00;;;;4996354;28;20216;-55
2023/09/29 03:26:21;;;;;;;2.03;1.73;;;;;13.10;96305.00;;;;4996094;28;20296;-56
2023/09/29 03:28:49;;;;;;;0.87;0.87;;;;;13.20;96296.00;;;;4995990;28;20240;-56
2023/09/29 03:31:18;;;;;;;0.73;0.73;;;;;13.30;96298.00;;;;4995869;28;20237;-56
2023/09/29 03:33:45;;;;;;;1.60;1.53;;;14.00;86.10;13.30;96304.00;;;;4996017;28;20579;-56
2023/09/29 03:36:12;;;;;;;1.37;1.27;;;14.10;86.30;13.40;96302.00;;;;4995988;28;20194;-56
2023/09/29 03:38:39;;;;;;;2.50;1.30;;;14.10;86.20;13.40;96301.00;;;;4996344;28;20213;-56
2023/09/29 03:41:07;;;;;;;0.80;0.80;;;14.10;86.10;13.40;96305.00;;;;4995774;28;20323;-56
2023/09/29 03:43:35;;;;;;;0.90;0.90;;;14.10;86.90;13.40;96302.00;;;;4994774;28;20665;-56
2023/09/29 03:46:04;;;;;;;0.83;0.83;;;14.10;86.90;13.30;96307.00;;;;4995760;28;20556;-56
2023/09/29 03:48:31;;;;;;;1.63;1.53;;;14.00;87.20;13.40;96283.00;;;;4995734;28;20186;-57
2023/09/29 03:51:02;;;;;;;1.13;1.13;;;;;13.30;96279.00;;;;4995631;28;20194;-56
2023/09/29 03:53:29;;;;;;;1.10;1.10;;;13.80;98.60;13.30;96278.00;;;;4995783;28;20248;-56
2023/09/29 03:55:57;;;;;;;0.80;0.80;;;13.90;92.00;13.40;96291.00;;;;4995470;28;20685;-56
2023/09/29 03:58:24;;;;;;;1.00;1.00;;;14.00;88.10;13.20;96295.00;;;;4994715;28;20174;-56
2023/09/29 04:00:53;;;;;;;1.57;1.47;;;;;13.10;96292.00;;;;4995945;28;20198;-55
2023/09/29 04:03:20;;;;;;;1.53;1.40;;;13.80;95.20;13.10;96286.00;;;;4995470;28;20272;-57
2023/09/29 04:05:47;;;;;;;1.00;1.00;;;13.80;89.30;13.30;96289.00;;;;4995562;28;20269;-55
2023/09/29 04:08:14;;;;;;;1.40;1.30;;;14.00;88.60;13.40;96301.00;;;;4977894;28;20697;-55
2023/09/29 04:10:41;;;;;;;0.93;0.93;;;13.90;90.40;13.30;96302.00;;;;4995637;28;20190;-56
2023/09/29 04:13:08;;;;;;;1.57;1.47;;;14.00;89.90;13.20;96310.00;;;;4995698;28;20190;-55
2023/09/29 04:15:36;;;;;;;1.10;1.10;;;14.00;94.10;13.30;96312.00;;;;4995179;28;20197;-55
2023/09/29 04:18:05;;;;;;;0.90;0.90;;;13.80;94.40;13.40;96317.00;;;;4995832;28;20194;-55
2023/09/29 04:20:32;;;;;;;1.60;1.37;;;;;13.40;96307.00;;;;4995346;28;20205;-55
2023/09/29 04:23:00;;;;;;;0.80;0.80;;;14.10;93.30;13.50;96313.00;;;;4995005;28;20217;-55
2023/09/29 04:25:27;;;;;;;1.00;1.00;;;14.10;98.50;13.40;96306.00;;;;4995350;28;20222;-55
2023/09/29 04:27:55;;;;;;;1.83;1.73;;;;;13.50;96308.00;;;;4994834;28;20218;-55
2023/09/29 04:30:22;;;;;;;1.00;1.00;;;14.10;89.50;13.40;96312.00;;;;4995625;28;20590;-55
2023/09/29 04:32:49;;;;;;;1.00;1.00;;;14.10;94.00;13.40;96307.00;;;;4994801;28;20221;-55
2023/09/29 04:35:17;;;;;;;0.80;0.80;;;14.10;96.40;13.40;96305.00;;;;4995133;28;20232;-55
2023/09/29 04:37:44;;;;;;;1.77;1.67;;;14.10;98.30;13.40;96296.00;;;;4995207;28;20190;-55
2023/09/29 04:40:13;;;;;;;1.43;1.43;;;14.10;99.90;13.40;96309.00;;;;4994953;28;20186;-56
2023/09/29 04:42:40;;;;;;;1.13;1.10;;;13.90;99.90;13.30;96301.00;;;;4994859;28;20221;-57
2023/09/29 04:45:08;;;;;;;0.97;0.97;;;;;13.20;96309.00;;;;4994851;28;20194;-55
2023/09/29 04:47:36;;;;;;;1.43;1.10;;;;;13.10;96302.00;;;;4994589;28;20626;-55
2023/09/29 04:50:05;;;;;;;1.23;1.23;;;;;13.10;96311.00;;;;4994516;28;20197;-54
2023/09/29 04:52:34;;;;;;;0.83;0.83;;;;;13.00;96307.00;;;;4994553;28;20214;-54
2023/09/29 04:55:01;;;;;;;0.90;0.90;;;;;13.20;96320.00;;;;4995125;28;20236;-55
2023/09/29 04:57:28;;;;;;;0.83;0.83;;;;;13.10;96318.00;;;;4994328;28;20657;-55
2023/09/29 04:59:56;;;;;;;0.90;0.90;;;;;13.00;96320.00;;;;4994973;28;20198;-56
2023/09/29 05:02:24;;;;;;;1.53;1.43;;;;;13.00;96309.00;;;;4994194;28;20216;-55
2023/09/29 05:04:52;;;;;;;1.00;1.00;;;;;13.00;96307.00;;;;4994240;28;20198;-55
2023/09/29 05:07:19;;;;;;;0.93;0.93;;;;;13.10;96311.00;;;;4994574;28;20225;-55
2023/09/29 05:09:47;;;;;;;18.67;13.87;;;13.80;97.90;13.10;96324.00;;;;4993706;28;20205;-55
2023/09/29 05:12:15;;;;;;;3.83;3.53;;;;;13.10;96316.00;;;;4993975;28;20293;-55
2023/09/29 05:14:42;;;;;;;1.10;1.10;;;;;13.20;96327.00;;;;4994119;28;20639;-55
2023/09/29 05:17:09;;;;;;;1.13;1.13;;;13.80;99.90;13.20;96326.00;;;;4994167;28;20513;-55
2023/09/29 05:19:36;;;;;;;1.43;1.33;;;13.90;99.90;13.20;96322.00;;;;4993798;28;20205;-55
2023/09/29 05:22:03;;;;;;;1.60;0.97;;;14.00;99.90;13.20;96319.00;;;;4993823;28;20210;-55
2023/09/29 05:24:30;;;;;;;1.30;1.20;;;;;13.30;96325.00;;;;4993773;28;20197;-55
2023/09/29 05:26:59;;;;;;;2.60;1.60;;;;;13.30;96330.00;;;;4993926;28;20213;-55
2023/09/29 05:29:26;;;;;;;0.70;0.70;;;13.90;88.90;13.20;96325.00;;;;4993708;28;20198;-55
2023/09/29 05:31:53;;;;;;;2.57;1.87;;;13.90;90.30;13.20;96331.00;;;;4994254;28;20232;-55
2023/09/29 05:34:20;;;;;;;2.57;1.00;;;13.80;90.20;13.10;96335.00;;;;4994312;28;20197;-55
2023/09/29 05:36:47;;;;;;;2.03;1.07;;;13.80;90.70;13.10;96323.00;;;;4993890;28;20289;-55
2023/09/29 05:39:15;;;;;;;1.33;1.20;;;13.80;91.50;13.30;96326.00;;;;4993761;28;20241;-55
2023/09/29 05:41:42;;;;;;;1.80;1.70;;;13.90;91.90;13.40;96332.00;;;;4993635;28;20214;-55
2023/09/29 05:44:10;;;;;;;0.80;0.80;;;14.00;91.40;13.40;96322.00;;;;4993725;28;20197;-55
2023/09/29 05:46:37;;;;;;;1.03;1.03;;;14.00;90.70;13.40;96329.00;;;;4993505;28;20221;-55
2023/09/29 05:49:05;;;;;;;2.13;1.93;;;14.10;90.70;13.40;96328.00;;;;4993797;28;20281;-55
2023/09/29 05:51:32;;;;;;;1.37;1.33;;;14.10;91.70;13.50;96330.00;;;;4993595;28;20210;-55
2023/09/29 05:54:02;;;;;;;1.03;1.03;;;14.20;91.00;13.50;96325.00;;;;4993702;28;20193;-55
2023/09/29 05:56:33;;;;;;;1.03;1.03;;;14.10;95.90;13.60;96328.00;;;;4993500;28;20724;-55
2023/09/29 05:59:10;;;;;;;1.00;0.90;;;14.30;97.50;13.60;96338.00;;;;4993558;28;20189;-55
2023/09/29 06:01:37;;;;;;;1.33;1.33;;;;;13.50;96323.00;;;;4993729;28;20229;-55
2023/09/29 06:04:05;;;;;;;0.83;0.83;;;;;13.60;96331.00;;;;4994168;28;20194;-55
2023/09/29 06:06:32;;;;;;;1.03;1.03;;;;;13.70;96335.00;;;;4993415;28;20198;-55
2023/09/29 06:09:00;;;;;;;0.90;0.90;;;;;13.80;96332.00;;;;4993760;28;20544;-56
2023/09/29 06:11:27;;;;;;;2.47;1.40;;;;;14.00;96336.00;;;;4993296;28;20292;-54
2023/09/29 06:13:55;;;;;;;0.93;0.93;;;;;13.90;96328.00;;;;4993543;28;20250;-56
2023/09/29 06:16:24;;;;;;;0.80;0.80;;;;;14.10;96342.00;;;;4993746;28;20576;-56
2023/09/29 06:19:00;;;;;;;0.80;0.80;;;;;14.10;96339.00;;;;4993611;28;20565;-55
2023/09/29 06:21:28;;;;;;;1.13;1.13;;;;;14.20;96347.00;;;;4995088;28;20221;-55
2023/09/29 06:23:55;;;;;;;1.30;1.30;;;;;14.10;96341.00;;;;4997369;28;20661;-55
2023/09/29 06:26:23;;;;;;;1.57;1.47;;;;;14.20;96346.00;;;;4997093;28;20202;-55
2023/09/29 06:28:50;;;;;;;1.87;1.57;;;;;14.40;96349.00;;;;4997558;28;20214;-56
2023/09/29 06:31:17;;;;;;;0.97;0.97;;;;;14.40;96356.00;;;;4997227;28;20222;-55
2023/09/29 06:33:46;;;;;;;0.93;0.93;;;;;14.40;96364.00;;;;5002421;28;20205;-58
2023/09/29 06:36:14;;;;;;;0.97;0.97;;;;;14.40;96364.00;;;;5002265;28;20222;-57
2023/09/29 06:38:41;;;;;;;1.97;1.60;;;;;14.50;96361.00;;;;4995426;28;20199;-58
2023/09/29 06:41:08;;;;;;;2.20;1.83;;;;;14.50;96366.00;;;;5001599;28;20232;-58
2023/09/29 06:43:35;;;;;;;6.60;2.53;;;15.30;96.40;14.70;96359.00;;;;5014680;28;20193;-56
2023/09/29 06:46:02;;;;;;;1.63;1.53;;;15.40;94.10;14.60;96366.00;;;;5012426;28;20257;-56
2023/09/29 06:48:30;;;;;;;1.13;1.13;;;15.40;94.20;14.70;96364.00;;;;5013924;28;20271;-56
2023/09/29 06:50:59;;;;;;;0.90;0.90;;;15.30;83.20;14.70;96341.00;;;;5014554;28;20196;-56
2023/09/29 06:53:28;;;;;;;1.10;1.10;;;;;14.90;96359.00;;;;5014305;28;20220;-56
2023/09/29 06:55:56;;;;;;;1.03;1.03;;;;;14.80;96360.00;;;;4998097;28;20213;-56
2023/09/29 06:58:23;;;;;;;2.00;1.17;;;;;14.90;96330.00;;;;4995140;28;20194;-56
2023/09/29 07:00:51;;;;;;;1.20;1.10;;;15.30;99.90;15.00;96352.00;;;;4994428;28;20204;-56
2023/09/29 07:03:19;;;;;;;1.47;1.40;;;15.50;84.00;15.10;96347.00;;;;4994538;28;20194;-55
2023/09/29 07:05:46;;;;;;;1.97;1.87;;;15.70;81.70;15.20;96357.00;;;;4999745;28;20198;-55
2023/09/29 07:08:15;;;;;;;0.90;0.90;;;15.80;85.50;15.10;96362.00;;;;4996345;28;20214;-56
2023/09/29 07:10:43;;;;;;;0.97;0.97;;;;;15.30;96362.00;;;;5014558;28;20197;-56
2023/09/29 07:13:10;;;;;;;1.57;1.47;;;15.90;96.20;15.40;96356.00;;;;5014613;28;20285;-56
2023/09/29 07:15:37;;;;;;;2.70;2.27;;;16.10;87.50;15.60;96361.00;;;;5013504;28;20219;-56
2023/09/29 07:18:10;;;;;;;2.20;2.00;;;16.20;84.30;15.80;96362.00;;;;5013605;28;20531;-56
2023/09/29 07:20:37;;;;;;;1.60;1.50;;;16.30;78.30;15.80;96351.00;;;;4996462;28;20601;-56
2023/09/29 07:23:08;;;;;;;1.80;1.70;;;;;15.90;96366.00;;;;4993416;28;20211;-56
2023/09/29 07:25:37;;;;;;;3.80;1.50;;;16.30;99.90;15.90;96362.00;;;;4994973;28;20636;-56
2023/09/29 07:28:05;;;;;;;1.23;1.23;;;16.60;99.90;16.00;96360.00;;;;4995784;28;20225;-56
2023/09/29 07:30:33;;;;;;;3.13;1.93;;;;;16.30;96366.00;;;;4994406;28;20209;-56
2023/09/29 07:33:00;;;;;;;1.43;1.33;;;;;16.40;96362.00;;;;5003978;28;20230;-56
2023/09/29 07:35:27;;;;;;;18.50;1.60;;;;;16.60;96363.00;;;;4994015;28;20210;-56
2023/09/29 07:37:55;;;;;;;1.10;1.10;;;;;16.70;96365.00;;;;4994071;28;20194;-56
2023/09/29 07:40:22;;;;;;;1.27;1.27;;;;;16.90;96363.00;;;;4994191;28;20205;-56
2023/09/29 07:42:51;;;;;;;0.90;0.90;;;17.50;68.30;17.10;96367.00;;;;4993966;28;20232;-56
2023/09/29 07:45:19;;;;;;;1.30;1.23;;;17.50;69.00;17.30;96371.00;;;;4993241;28;20190;-56
2023/09/29 07:47:47;;;;;;;2.10;1.93;;;17.70;68.10;17.30;96373.00;;;;4993916;28;20292;-56
2023/09/29 07:50:15;;;;;;;1.33;1.23;;;17.80;86.50;17.20;96385.00;;;;4994063;28;20190;-56
2023/09/29 07:52:42;;;;;;;1.97;1.73;;;17.80;84.00;17.40;96381.00;;;;4996660;28;20228;-56
2023/09/29 07:55:10;;;;;;;2.07;1.97;;;17.80;81.80;17.50;96379.00;;;;5013069;28;20201;-56
2023/09/29 07:57:38;;;;;;;1.27;1.27;;;18.00;89.00;17.50;96376.00;;;;5013104;28;20209;-57
2023/09/29 08:00:10;;;;;;;1.27;1.27;;;18.00;90.20;17.70;96376.00;;;;5013218;28;20198;-56
2023/09/29 08:02:37;;;;;;;0.70;0.70;;;;;17.90;96365.00;;;;5013370;28;20316;-56
2023/09/29 08:05:06;;;;;;;1.63;1.53;;;;;18.20;96369.00;;;;5013080;28;20649;-56
2023/09/29 08:07:33;;;;;;;1.40;1.30;;;18.60;58.60;18.30;96369.00;;;;5013133;28;20221;-56
2023/09/29 08:10:01;;;;;;;6.70;1.27;;;18.70;56.90;18.40;96372.00;;;;4994111;28;20245;-57
2023/09/29 08:12:28;;;;;;;16.50;1.10;;;18.80;56.90;18.50;96374.00;;;;4992301;28;20589;-56
2023/09/29 08:14:55;;;;;;;0.90;0.90;;;18.90;56.40;18.60;96378.00;;;;4993727;28;20194;-56
2023/09/29 08:17:25;;;;;;;2.07;1.13;;;19.00;54.10;18.70;96373.00;;;;4993221;28;20710;-56
2023/09/29 08:19:53;;;;;;;2.07;1.27;;;19.10;54.30;18.80;96375.00;;;;4993532;28;20234;-56
2023/09/29 08:22:20;;;;;;;0.90;0.90;;;19.20;54.40;19.10;96377.00;;;;4993204;28;20214;-56
2023/09/29 08:24:47;;;;;;;1.07;1.07;;;19.40;61.30;19.20;96368.00;;;;4993267;28;20194;-56
2023/09/29 08:27:14;;;;;;;0.70;0.70;;;19.60;64.40;19.20;96374.00;;;;5022735;28;20292;-56
2023/09/29 08:29:41;;;;;;;1.10;1.10;;;19.70;63.40;19.20;96373.00;;;;4993077;28;20575;-56
2023/09/29 08:32:08;;;;;;;1.20;1.20;;;19.70;55.40;19.40;96366.00;;;;4992859;28;20248;-56
2023/09/29 08:34:37;;;;;;;1.53;1.37;;;;;19.40;96362.00;;;;4992049;28;20198;-56
2023/09/29 08:37:04;;;;;;;1.23;1.13;;;;;19.40;96363.00;;;;4993436;28;20226;-56
2023/09/29 08:39:31;;;;;;;0.70;0.70;;;20.10;58.80;19.60;96365.00;;;;5009540;28;20221;-56
2023/09/29 08:42:05;;;;;;;1.00;1.00;;;20.00;65.60;19.60;96378.00;;;;4993285;28;20210;-56
2023/09/29 08:44:34;;;;;;;0.87;0.87;;;20.10;61.20;19.80;96385.00;;;;4996938;28;20560;-56
2023/09/29 08:47:03;;;;;;;2.27;1.10;;;20.20;63.70;19.90;96384.00;;;;5002705;28;20194;-56
2023/09/29 08:49:31;;;;;;;1.80;0.90;;;20.30;58.60;20.20;96376.00;;;;5002974;28;20221;-56
2023/09/29 08:52:03;;;;;;;1.37;1.27;;;20.50;60.40;20.30;96372.00;;;;5012339;28;20582;-56
2023/09/29 08:54:32;;;;;;;0.70;0.70;;;20.60;73.40;20.50;96377.00;;;;5012516;28;20217;-56
2023/09/29 08:57:00;;;;;;;0.90;0.90;;;20.80;52.30;20.60;96381.00;;;;5012706;28;20556;-56
2023/09/29 08:59:29;;;;;;;1.30;1.20;;;;;20.60;96373.00;;;;5012276;28;20198;-57
2023/09/29 09:01:58;;;;;;;1.00;1.00;;;21.00;62.70;20.90;96359.00;;;;4992193;28;20222;-56
2023/09/29 09:04:27;;;;;;;1.80;1.70;;;21.30;63.40;21.40;96365.00;;;;4990928;28;20201;-54
2023/09/29 09:06:54;;;;;;;2.17;1.35;;;21.60;63.50;21.90;96361.00;;;;4992345;28;20202;-54
2023/09/29 09:09:24;;;;;;;0.98;0.90;;;;;22.00;96368.00;;;;4992063;28;20268;-55
2023/09/29 09:11:51;;;;;;;0.80;0.80;;;22.30;51.80;22.10;96369.00;;;;4991604;28;20248;-56
2023/09/29 09:14:20;;;;;;;0.80;0.80;;;;;22.20;96375.00;;;;5004444;28;20202;-56
2023/09/29 09:16:48;;;;;;;0.80;0.80;;;22.50;42.00;22.20;96366.00;;;;5011336;28;20263;-56
2023/09/29 09:19:16;;;;;;;0.85;0.85;;;22.60;46.50;22.10;96373.00;;;;5011325;28;20198;-55
2023/09/29 09:21:46;;;;;;;0.70;0.70;;;;;22.10;96379.00;;;;5010756;28;20221;-55
2023/09/29 09:24:20;;;;;;;1.00;1.00;;;;;22.30;96375.00;;;;4997673;28;20198;-56
2023/09/29 09:26:50;;;;;;;1.38;1.20;;;;;22.30;96382.00;;;;5011644;28;20192;-56
2023/09/29 09:29:18;;;;;;;0.70;0.70;;;;;22.00;96380.00;;;;5011909;28;20245;-56
2023/09/29 09:31:49;;;;;;;2.38;1.05;;;;;22.20;96382.00;;;;5011385;28;20700;-56
2023/09/29 09:34:16;;;;;;;0.75;0.75;;;;;22.60;96377.00;;;;4996046;28;20205;-56
2023/09/29 09:36:51;;;;;;;0.68;0.68;;;;;22.70;96382.00;;;;5006325;28;20197;-56
2023/09/29 09:39:23;;;;;;;1.05;1.05;;;;;22.70;96382.00;;;;5011877;28;20195;-56
2023/09/29 09:41:53;;;;;;;0.88;0.88;;;;;22.60;96385.00;;;;5010432;28;20218;-56
2023/09/29 09:44:22;;;;;;;1.05;1.05;;;;;22.80;96379.00;;;;5011851;28;20773;-56
2023/09/29 09:47:00;;;;;;;1.40;1.33;;;;;22.90;96386.00;;;;5003543;28;20695;-56
2023/09/29 09:49:36;;;;;;;1.40;1.27;;;;;23.00;96377.00;;;;4989652;28;20229;-56
2023/09/29 09:52:07;;;;;;;0.77;0.77;;;;;23.10;96371.00;;;;4991701;28;20297;-56
2023/09/29 09:54:40;;;;;;;0.60;0.60;;;;;23.30;96370.00;;;;4989753;28;20190;-56
2023/09/29 09:57:11;;;;;;;0.80;0.80;;;;;23.80;96376.00;;;;5010748;28;20208;-56
2023/09/29 09:59:41;;;;;;;0.70;0.70;;;;;23.60;96373.00;;;;5010757;28;20193;-56
2023/09/29 10:02:11;;;;;;;1.20;0.90;;;;;23.50;96363.00;;;;5003552;28;20229;-56
2023/09/29 10:04:40;;;;;;;1.15;1.10;;;;;23.80;96369.00;;;;4991684;28;20301;-56
2023/09/29 10:07:08;;;;;;;1.08;1.08;;;;;23.70;96370.00;;;;4991936;28;20206;-56
2023/09/29 10:09:47;;;;;;;0.88;0.88;;;;;23.80;96373.00;;;;4991972;28;20218;-56
2023/09/29 10:12:31;;;;;;;0.90;0.90;;;;;24.10;96370.00;;;;4996969;28;20562;-56
2023/09/29 10:14:59;;;;;;;1.00;1.00;;;;;24.00;96370.00;;;;5003044;28;20327;-57
2023/09/29 10:17:39;;;;;;;0.90;0.90;;;;;24.50;96359.00;;;;5010749;28;20201;-57
2023/09/29 10:20:19;;;;;;;0.77;0.77;;;;;24.70;96360.00;;;;5007754;28;20561;-57
2023/09/29 10:22:47;;;;;;;1.20;1.05;;;;;24.80;96363.00;;;;5006728;28;20221;-57
2023/09/29 10:25:20;;;;;;;0.82;0.82;;;;;25.00;96355.00;;;;5010898;28;20224;-57
2023/09/29 10:27:59;;;;;;;1.10;1.10;;;;;25.00;96353.00;;;;5011135;28;20244;-56
2023/09/29 10:30:28;;;;;;;1.35;1.25;;;;;24.60;96362.00;;;;5011153;28;20205;-56
2023/09/29 10:33:06;;;;;;;0.70;0.70;;;;;24.60;96364.00;;;;5011046;28;20221;-57
2023/09/29 10:35:35;;;;;;;1.15;1.15;;;;;25.00;96365.00;;;;5011173;28;20663;-57
2023/09/29 10:38:12;;;;;;;0.68;0.68;;;;;24.70;96368.00;;;;5001971;28;20202;-56
2023/09/29 10:40:39;;;;;;;0.90;0.90;;;;;24.50;96367.00;;;;5007520;28;20271;-59
2023/09/29 10:43:10;;;;;;;0.80;0.80;;;;;24.70;96347.00;;;;5011199;28;20201;-60
2023/09/29 10:45:37;;;;;;;1.25;1.25;;;;;24.50;96356.00;;;;5009830;28;20200;-57
2023/09/29 10:48:07;;;;;;;0.98;0.98;;;;;25.00;96348.00;;;;5007330;28;20565;-56
2023/09/29 10:50:41;;;;;;;1.73;1.17;;;;;25.20;96352.00;;;;5009976;28;20656;-57
2023/09/29 10:53:09;;;;;;;0.85;0.85;;;;;25.30;96341.00;;;;5010815;28;20197;-57
2023/09/29 10:55:44;;;;;;;0.63;0.63;;;;;25.30;96357.00;;;;5010477;28;20208;-57
2023/09/29 10:58:13;;;;;;;0.63;0.63;;;;;25.70;96358.00;;;;4991415;28;20244;-56
2023/09/29 11:00:47;;;;;;;1.05;0.98;;;;;25.30;96375.00;;;;4992820;28;20205;-57
2023/09/29 11:03:15;;;;;;;1.17;1.10;;;;;25.50;96348.00;;;;5008188;28;20604;-58
2023/09/29 11:05:50;;;;;;;1.40;1.30;;;;;25.40;96346.00;;;;5012051;28;20213;-56
2023/09/29 11:08:19;;;;;;;0.93;0.93;;;;;25.60;96350.00;;;;5014738;28;20197;-58
2023/09/29 11:11:01;;;;;;;0.80;0.80;;;;;25.80;96341.00;;;;5004161;28;20204;-56
2023/09/29 11:13:31;;;;;;;1.30;1.20;;;;;25.70;96341.00;;;;4995499;28;20574;-56
2023/09/29 11:15:59;;;;;;;14.07;1.48;;;;;25.60;96371.00;;;;4996039;28;20194;-56
2023/09/29 11:18:32;;;;;;;1.02;1.02;;;;;25.70;96357.00;;;;4998736;28;20229;-55
2023/09/29 11:21:00;;;;;;;0.73;0.73;;;;;25.10;96348.00;;;;5015298;28;20221;-56
2023/09/29 11:23:38;;;;;;;0.90;0.90;;;;;25.20;96354.00;;;;5015133;28;20194;-56
2023/09/29 11:26:10;;;;;;;1.08;1.08;;;;;25.80;96355.00;;;;4997524;28;20677;-56
2023/09/29 11:28:42;;;;;;;0.70;0.70;;;;;25.80;96331.00;;;;4999311;28;20210;-56
2023/09/29 11:31:12;;;;;;;1.10;1.10;;;;;26.50;96332.00;;;;5004218;28;20267;-55
2023/09/29 11:33:39;;;;;;;1.70;1.60;;;;;27.00;96339.00;;;;5015543;28;20561;-56
2023/09/29 11:36:17;;;;;;;1.25;1.25;;;;;26.90;96360.00;;;;4997729;28;20311;-56
2023/09/29 11:38:45;;;;;;;1.00;1.00;;;;;26.20;96325.00;;;;5015151;28;20272;-56
2023/09/29 11:41:15;;;;;;;0.55;0.55;;;;;26.30;96325.00;;;;5015055;28;20240;-56
2023/09/29 11:43:44;;;;;;;1.60;1.40;;;;;26.40;96331.00;;;;4997351;28;20609;-56
2023/09/29 11:46:14;;;;;;;1.10;1.08;;;;;26.20;96333.00;;;;5014868;28;20224;-56
2023/09/29 11:48:42;;;;;;;0.90;0.90;;;;;26.50;96320.00;;;;4994859;28;20225;-56